WetterOnline ( http://www.wetteronline.de )

Wetter aktuell Braunschweig

Aktuelles Wetter: Braunschweig/Flughafen (88m)

6-stündlich | Neueste Meldungen
Ortszeit Temperatur Wetter
Sa, 20.10. 14:00 12.1° C bedeckt
Sa, 20.10. 8:00 4.2° C bedeckt
Sa, 20.10. 2:00 3.9° C leicht bewölkt
Fr, 19.10. 20:00 7.7° C wolkig
Fr, 19.10. 14:00 14.1° C wolkenlos
Fr, 19.10. 8:00 4.4° C wolkenlos
Fr, 19.10. 2:00 8.3° C bewölkt
Do, 18.10. 20:00 12.8° C bedeckt
Ortszeit Temperatur Wetter
Sa, 20.10. 17:20 13° C bedeckt
Sa, 20.10. 17:00 13.5° C wolkig
Sa, 20.10. 16:50 13.5° C bewölkt
Sa, 20.10. 16:40 13.6° C bewölkt
Sa, 20.10. 16:30 13.5° C bewölkt
Sa, 20.10. 16:20 13.5° C bewölkt
Sa, 20.10. 16:00 13.5° C fast wolkenlos
Sa, 20.10. 15:30 13.2° C leicht bewölkt
Sa, 20.10. 15:00 13.2° C leicht bewölkt
Sa, 20.10. 14:30 12.7° C bewölkt
Sa, 20.10. 14:00 12.1° C bedeckt
Ortszeit Relative Feuchte Sichtweite
Sa, 20.10. 14:00 61% 22 km
Sa, 20.10. 8:00 94% 12 km
Sa, 20.10. 2:00 95% 12 km
Fr, 19.10. 20:00 84% 60 km
Fr, 19.10. 14:00 53% 45 km
Fr, 19.10. 8:00 97% 27 km
Fr, 19.10. 2:00 76% 70 km
Do, 18.10. 20:00 85% 16 km
Ortszeit Relative Feuchte Sichtweite
Sa, 20.10. 17:20 58% >10 km
Sa, 20.10. 17:00 57% 30 km
Sa, 20.10. 16:50 57% -
Sa, 20.10. 16:40 56% -
Sa, 20.10. 16:30 56% 30 km
Sa, 20.10. 16:20 56% -
Sa, 20.10. 16:00 54% 28 km
Sa, 20.10. 15:30 54% 35 km
Sa, 20.10. 15:00 56% 26 km
Sa, 20.10. 14:30 58% 28 km
Sa, 20.10. 14:00 61% 22 km
Ortszeit Niederschlagsmenge Niederschlagsart
Sa, 20.10. 14:00 0.0 l/m2 in 6 Std. -
Sa, 20.10. 8:00 0.0 l/m2 in 12 Std. -
Sa, 20.10. 2:00 0.0 l/m2 in 6 Std. -
Fr, 19.10. 20:00 0.0 l/m2 in 12 Std. -
Fr, 19.10. 14:00 0.0 l/m2 in 6 Std. -
Fr, 19.10. 8:00 0.1 l/m2 in 12 Std. -
Fr, 19.10. 2:00 0.1 l/m2 in 6 Std. Sprühregen
Do, 18.10. 20:00 0.0 l/m2 in 12 Std. -
Ortszeit Niederschlagsmenge Niederschlagsart
Sa, 20.10. 17:20 keine Meldung -
Sa, 20.10. 17:00 0.0 l/m2 in 1 Std. -
Sa, 20.10. 16:50 keine Meldung -
Sa, 20.10. 16:40 keine Meldung -
Sa, 20.10. 16:30 0.0 l/m2 in 1 Std. -
Sa, 20.10. 16:20 keine Meldung -
Sa, 20.10. 16:00 0.0 l/m2 in 1 Std. -
Sa, 20.10. 15:30 0.0 l/m2 in 1 Std. -
Sa, 20.10. 15:00 0.0 l/m2 in 1 Std. -
Sa, 20.10. 14:30 0.0 l/m2 in 1 Std. -
Sa, 20.10. 14:00 0.0 l/m2 in 1 Std. -
Ortszeit Stärke Spitze Richtung
km/h Bft. km/h Grad Sektor
Sa, 20.10. 14:00 13 3 20 270° W
Sa, 20.10. 8:00 4 1 7 280° W
Sa, 20.10. 2:00 0 0 7 - -
Fr, 19.10. 20:00 0 0 18 - -
Fr, 19.10. 14:00 9 2 19 50° NO
Fr, 19.10. 8:00 2 1 13 140° SO
Fr, 19.10. 2:00 7 2 28 50° NO
Do, 18.10. 20:00 6 1 19 320° NW
Ortszeit Stärke Spitze Richtung
km/h Bft. km/h Grad Sektor
Sa, 20.10. 17:20 11 2 - 290° W
Sa, 20.10. 17:00 14 3 22 310° NW
Sa, 20.10. 16:50 14 3 - 310° NW
Sa, 20.10. 16:40 14 3 - 290° W
Sa, 20.10. 16:30 14 3 22 300° NW
Sa, 20.10. 16:20 14 3 - 300° NW
Sa, 20.10. 16:00 14 3 22 290° W
Sa, 20.10. 15:30 13 3 22 300° NW
Sa, 20.10. 15:00 11 2 22 280° W
Sa, 20.10. 14:30 13 3 22 290° W
Sa, 20.10. 14:00 13 3 20 270° W
Ortszeit Untergrenze Bedeckung Gattung
total tief tief mittel hoch
Sa, 20.10. 14:00 1170 m 8/8 8/8 - - -
Sa, 20.10. 8:00 1110 m 8/8 8/8 - - -
Sa, 20.10. 2:00 6900 m 4/8 4/8 - - -
Fr, 19.10. 20:00 7800 m 8/8 0/8 - - -
Fr, 19.10. 14:00 - 0/8 0/8 - - -
Fr, 19.10. 8:00 - 0/8 0/8 - - -
Fr, 19.10. 2:00 1500 m 7/8 7/8 - - -
Do, 18.10. 20:00 1290 m 8/8 8/8 - - -
Ortszeit Bedeckungsgrad in Achtel und Wolkenuntergrenze
Sa, 20.10. 17:20 1-2(1110m) 8(1500m)
Sa, 20.10. 17:00 3(1110m) 7(1500m)
Sa, 20.10. 16:50 3(1110m) 7(1500m)
Sa, 20.10. 16:40 2(1080m) 7(1500m)
Sa, 20.10. 16:30 7(1500m)
Sa, 20.10. 16:20 7(1500m)
Sa, 20.10. 16:00 4(1500m)
Sa, 20.10. 15:30 3(1110m)
Sa, 20.10. 15:00 2(1140m) 4(1500m)
Sa, 20.10. 14:30 7(1140m) 7(1500m)
Sa, 20.10. 14:00 6(1170m) 8(1500m)
Ortszeit Luftdruck NN (hPa) Tendenz (hPa in 3 Std.)
Sa, 20.10. 14:00 1030 0,0
Sa, 20.10. 8:00 1029 + 1,2
Sa, 20.10. 2:00 1027 + 0,5
Fr, 19.10. 20:00 1026 + 1,0
Fr, 19.10. 14:00 1026 - 1,1
Fr, 19.10. 8:00 1026 + 0,1
Fr, 19.10. 2:00 1026 + 0,3
Do, 18.10. 20:00 1024 + 1,1
Ortszeit Luftdruck NN (hPa) Tendenz (hPa in 3 Std.)
Sa, 20.10. 17:20 1029 keine Meldung
Sa, 20.10. 17:00 1030 - 0,4
Sa, 20.10. 16:50 1030 keine Meldung
Sa, 20.10. 16:40 1030 keine Meldung
Sa, 20.10. 16:30 1029 - 0,7
Sa, 20.10. 16:20 1029 keine Meldung
Sa, 20.10. 16:00 1030 - 0,8
Sa, 20.10. 15:30 1030 - 0,7
Sa, 20.10. 15:00 1030 - 0,6
Sa, 20.10. 14:30 1030 - 0,1
Sa, 20.10. 14:00 1030 0,0
Ortszeit Schneehöhe (cm)
Sa, 20.10. 14:00 0
Sa, 20.10. 8:00 0
Sa, 20.10. 2:00 0
Fr, 19.10. 20:00 0
Fr, 19.10. 14:00 0
Fr, 19.10. 8:00 0
Fr, 19.10. 2:00 0
Do, 18.10. 20:00 0
Ortszeit Schneehöhe (cm)
Sa, 20.10. 17:20 -
Sa, 20.10. 17:00 0
Sa, 20.10. 16:50 0
Sa, 20.10. 16:40 0
Sa, 20.10. 16:30 0
Sa, 20.10. 16:20 0
Sa, 20.10. 16:00 0
Sa, 20.10. 15:30 0
Sa, 20.10. 15:00 0
Sa, 20.10. 14:30 0
Sa, 20.10. 14:00 0
Link zu dieser Seite / Seite empfehlen

Das Wetter in ...